Time;durP1;ratioP1;P1;durP2;ratioP2;P2;SDS_P1;SDS_P2;PMS_P1;PMS_P2;Temp;Humidity;BMP_temperature;BMP_pressure;BME280_temperature;BME280_humidity;BME280_pressure;Samples;Min_cycle;Max_cycle;Signal;HPM_P1;HPM_P2
2023/01/11 00:01:16;;;;;;;1.50;1.40;;;8.90;49.10;;;;;;20492;6847;283307;-75
2023/01/11 00:03:42;;;;;;;2.13;1.50;;;9.20;48.60;;;;;;20498;6847;308187;-74
2023/01/11 00:06:10;;;;;;;2.80;1.27;;;9.20;48.70;;;;;;20691;6847;120985;-75
2023/01/11 00:08:37;;;;;;;1.40;1.30;;;8.90;49.50;;;;;;20717;6847;117853;-75
2023/01/11 00:11:03;;;;;;;1.30;1.20;;;8.90;49.00;;;;;;20502;6847;308138;-75
2023/01/11 00:13:29;;;;;;;2.17;1.17;;;8.80;49.40;;;;;;20710;6847;120205;-77
2023/01/11 00:15:55;;;;;;;3.30;1.20;;;8.80;49.40;;;;;;20720;6847;117160;-76
2023/01/11 00:18:20;;;;;;;1.40;1.30;;;8.60;50.60;;;;;;20483;6847;318252;-76
2023/01/11 00:20:46;;;;;;;1.23;1.13;;;8.70;49.60;;;;;;20489;6847;308146;-76
2023/01/11 00:23:11;;;;;;;1.40;1.00;;;9.00;49.10;;;;;;20503;6847;312486;-76
2023/01/11 00:25:37;;;;;;;1.30;1.20;;;9.30;48.50;;;;;;20503;6847;306550;-76
2023/01/11 00:28:03;;;;;;;1.45;1.35;;;9.50;48.00;;;;;;20695;6847;119686;-76
2023/01/11 00:30:28;;;;;;;1.10;1.10;;;9.30;48.50;;;;;;20709;6847;118980;-76
2023/01/11 00:32:54;;;;;;;1.27;1.17;;;9.00;49.20;;;;;;20497;6847;307607;-76
2023/01/11 00:35:19;;;;;;;2.37;1.30;;;9.00;49.00;;;;;;20491;6847;308942;-76
2023/01/11 00:37:45;;;;;;;1.20;1.10;;;9.20;48.60;;;;;;20711;6847;117452;-76
2023/01/11 00:40:11;;;;;;;1.47;1.00;;;9.10;49.00;;;;;;20483;6847;311237;-76
2023/01/11 00:48:08;;;;;;;1.23;0.87;;;8.70;50.40;;;;;;20706;6846;129209;-76
2023/01/11 00:50:32;;;;;;;1.33;1.00;;;8.50;51.10;;;;;;20499;6847;284152;-76
2023/01/11 00:52:58;;;;;;;1.43;1.00;;;8.60;51.30;;;;;;20501;6847;282995;-76
2023/01/11 00:55:23;;;;;;;1.27;0.80;;;9.00;51.20;;;;;;20711;6847;117599;-77
2023/01/11 00:57:49;;;;;;;1.00;0.83;;;9.00;51.20;;;;;;20708;6847;117432;-80
2023/01/11 01:00:15;;;;;;;1.17;1.07;;;8.70;52.20;;;;;;20694;6847;118994;-76
2023/01/11 01:02:41;;;;;;;0.90;0.90;;;8.60;52.10;;;;;;20494;6847;283145;-76
2023/01/11 01:05:07;;;;;;;1.10;1.00;;;8.80;52.40;;;;;;20506;6847;278055;-76
2023/01/11 01:07:33;;;;;;;1.17;0.80;;;9.10;52.20;;;;;;20710;6847;119121;-76
2023/01/11 01:09:59;;;;;;;1.83;1.00;;;9.10;52.20;;;;;;20502;6847;307811;-76
2023/01/11 01:15:10;;;;;;;0.77;0.70;;;9.50;51.90;;;;;;20711;6847;116958;-76
2023/01/11 01:17:36;;;;;;;1.15;0.90;;;9.40;52.10;;;;;;20718;6847;117133;-76
2023/01/11 01:20:01;;;;;;;1.40;0.90;;;9.10;52.60;;;;;;20481;6847;291145;-76
2023/01/11 01:22:27;;;;;;;2.05;0.90;;;9.20;52.50;;;;;;20713;6847;120354;-76
2023/01/11 01:24:53;;;;;;;1.00;0.90;;;9.10;52.70;;;;;;20490;6847;302772;-76
2023/01/11 01:27:19;;;;;;;1.20;1.10;;;9.20;52.70;;;;;;20698;6847;118521;-76
2023/01/11 01:29:46;;;;;;;1.73;1.20;;;9.20;52.70;;;;;;20699;6847;121271;-76
2023/01/11 01:32:14;;;;;;;1.80;1.03;;;8.80;53.50;;;;;;20687;6847;120471;-76
2023/01/11 01:34:39;;;;;;;3.50;1.03;;;8.80;53.50;;;;;;20713;6847;117835;-77
2023/01/11 01:37:05;;;;;;;1.20;1.10;;;8.70;53.90;;;;;;20495;6847;312441;-76
2023/01/11 01:39:30;;;;;;;1.90;0.70;;;8.90;53.70;;;;;;20704;6847;116998;-76
2023/01/11 01:41:56;;;;;;;1.20;1.10;;;8.90;53.70;;;;;;20505;6847;281230;-76
2023/01/11 01:44:58;;;;;;;1.48;1.02;;;9.40;52.70;;;;;;20481;6847;307750;-76
2023/01/11 01:47:56;;;;;;;0.93;0.83;;;9.40;52.70;;;;;;20709;6847;117367;-76
2023/01/11 01:50:22;;;;;;;1.63;1.00;;;9.20;52.70;;;;;;20685;6847;120332;-76
2023/01/11 01:52:48;;;;;;;1.05;0.75;;;8.90;53.20;;;;;;20699;6847;117339;-75
2023/01/11 01:55:13;;;;;;;1.85;0.95;;;8.70;53.70;;;;;;20487;6845;337705;-75
2023/01/11 01:57:39;;;;;;;2.60;1.00;;;8.80;53.70;;;;;;20482;6846;307685;-75
2023/01/11 02:00:05;;;;;;;1.15;0.80;;;9.10;53.20;;;;;;20681;6846;124092;-75
2023/01/11 02:02:30;;;;;;;0.70;0.70;;;9.00;53.20;;;;;;20687;6847;118406;-75
2023/01/11 02:04:56;;;;;;;1.00;0.80;;;8.80;53.60;;;;;;20712;6847;117092;-74
2023/01/11 02:07:21;;;;;;;0.90;0.90;;;8.50;54.10;;;;;;20494;6847;308146;-75
2023/01/11 02:09:47;;;;;;;1.10;0.80;;;8.60;54.50;;;;;;20706;6847;119062;-75
2023/01/11 02:12:13;;;;;;;0.93;0.80;;;8.60;54.50;;;;;;20680;6847;119330;-75
2023/01/11 02:14:38;;;;;;;1.53;1.20;;;8.50;54.90;;;;;;20483;6847;308636;-76
2023/01/11 02:17:04;;;;;;;1.00;1.00;;;8.60;55.00;;;;;;20702;6847;116983;-75
2023/01/11 02:19:39;;;;;;;1.10;1.00;;;8.40;55.20;;;;;;20705;6847;117132;-75
2023/01/11 02:22:12;;;;;;;1.67;1.20;;;8.40;55.10;;;;;;20674;6847;151882;-76
2023/01/11 02:24:58;;;;;;;1.80;0.90;;;8.20;55.40;;;;;;20470;6847;119209;-76
2023/01/11 02:27:24;;;;;;;1.20;1.10;;;8.10;55.70;;;;;;20709;6847;117533;-75
2023/01/11 02:30:12;;;;;;;1.10;1.00;;;7.90;55.90;;;;;;20673;6847;117744;-75
2023/01/11 02:32:51;;;;;;;1.40;1.00;;;7.80;56.20;;;;;;20704;6847;119157;-75
2023/01/11 02:35:33;;;;;;;1.37;1.27;;;7.70;56.60;;;;;;20474;6847;278150;-75
2023/01/11 02:38:12;;;;;;;1.50;1.20;;;8.00;57.50;;;;;;20492;6847;312637;-75
2023/01/11 02:41:07;;;;;;;1.17;1.00;;;8.50;56.20;;;;;;20699;6847;117321;-75
2023/01/11 02:46:45;;;;;;;0.90;0.90;;;8.70;55.60;;;;;;20688;6847;118551;-76
2023/01/11 02:49:34;;;;;;;1.58;1.42;;;8.70;55.60;;;;;;20497;6847;338128;-76
2023/01/11 02:51:59;;;;;;;1.17;1.00;;;8.80;55.20;;;;;;20484;6847;338954;-76
2023/01/11 02:54:25;;;;;;;1.45;0.90;;;9.10;54.50;;;;;;20660;6847;118433;-76
2023/01/11 02:56:51;;;;;;;1.53;0.90;;;9.00;54.50;;;;;;20712;6847;121177;-76
2023/01/11 02:59:17;;;;;;;0.80;0.80;;;8.50;55.50;;;;;;20634;6847;121078;-76
2023/01/11 03:01:46;;;;;;;1.40;1.10;;;8.50;55.40;;;;;;20454;6847;337238;-75
2023/01/11 03:04:24;;;;;;;1.90;1.27;;;8.50;55.10;;;;;;20473;6847;334610;-76
2023/01/11 03:06:50;;;;;;;0.87;0.87;;;8.80;54.50;;;;;;20646;6845;117271;-76
2023/01/11 03:09:19;;;;;;;1.23;1.10;;;8.70;54.50;;;;;;20484;6846;278790;-76
2023/01/11 03:15:06;;;;;;;1.13;0.90;;;8.90;54.10;;;;;;20495;6847;310230;-76
2023/01/11 03:17:45;;;;;;;1.10;1.00;;;9.20;53.80;;;;;;20674;6847;117366;-75
2023/01/11 03:20:24;;;;;;;1.27;1.00;;;9.00;54.10;;;;;;20612;6847;118993;-76
2023/01/11 03:23:06;;;;;;;1.27;0.90;;;8.70;54.90;;;;;;20687;6847;120092;-75
2023/01/11 03:25:42;;;;;;;1.77;1.00;;;8.60;55.90;;;;;;20495;6847;307867;-75
2023/01/11 03:28:14;;;;;;;1.40;1.30;;;8.60;55.60;;;;;;20654;6847;117721;-75
2023/01/11 03:30:43;;;;;;;1.03;0.90;;;8.60;55.70;;;;;;20461;6847;280236;-77
2023/01/11 03:33:21;;;;;;;1.10;1.10;;;8.70;55.60;;;;;;20491;6847;322025;-75
2023/01/11 03:35:50;;;;;;;1.03;0.93;;;9.10;55.20;;;;;;20699;6847;117241;-75
2023/01/11 03:38:19;;;;;;;1.35;1.02;;;9.00;55.20;;;;;;20461;6847;278895;-75
2023/01/11 03:40:51;;;;;;;0.67;0.67;;;9.10;55.00;;;;;;20696;6847;120911;-76
2023/01/11 03:43:16;;;;;;;1.47;1.00;;;9.10;55.20;;;;;;20462;6847;307835;-75
2023/01/11 03:45:54;;;;;;;1.33;0.90;;;9.50;54.70;;;;;;20490;6847;308059;-75
2023/01/11 03:48:26;;;;;;;1.37;0.90;;;9.50;54.70;;;;;;20464;6847;307518;-76
2023/01/11 03:50:52;;;;;;;1.42;0.95;;;9.70;53.90;;;;;;20485;6847;308875;-76
2023/01/11 03:53:18;;;;;;;0.90;0.83;;;10.00;52.90;;;;;;20496;6847;280334;-75
2023/01/11 03:55:43;;;;;;;1.00;1.00;;;10.00;52.20;;;;;;20501;6847;278068;-76
2023/01/11 03:58:09;;;;;;;0.90;0.70;;;10.10;52.20;;;;;;20679;6847;117440;-76
2023/01/11 04:00:35;;;;;;;1.13;1.00;;;9.90;53.80;;;;;;20493;6847;308072;-75
2023/01/11 04:03:01;;;;;;;0.90;0.60;;;9.90;53.80;;;;;;20703;6847;116909;-76
2023/01/11 04:05:26;;;;;;;1.10;0.80;;;9.70;54.10;;;;;;20497;6847;337632;-75
2023/01/11 04:07:52;;;;;;;0.82;0.82;;;9.70;54.60;;;;;;20708;6847;118388;-75
2023/01/11 04:10:20;;;;;;;0.70;0.70;;;9.70;55.10;;;;;;20473;6847;337570;-75
2023/01/11 04:12:46;;;;;;;1.10;0.90;;;9.70;55.10;;;;;;20502;6847;279000;-75
2023/01/11 04:15:12;;;;;;;1.42;0.88;;;9.90;54.70;;;;;;20702;6847;118384;-76
2023/01/11 04:17:36;;;;;;;1.23;1.05;;;9.80;54.80;;;;;;20498;6846;307966;-76
2023/01/11 04:20:02;;;;;;;0.80;0.80;;;9.80;55.00;;;;;;20695;6846;118793;-76
2023/01/11 04:22:28;;;;;;;1.58;1.48;;;9.70;55.00;;;;;;20715;6846;118290;-75
2023/01/11 04:24:53;;;;;;;1.03;0.70;;;9.50;55.60;;;;;;20707;6847;123926;-76
2023/01/11 04:27:19;;;;;;;0.77;0.77;;;9.30;56.10;;;;;;20710;6847;122550;-76
2023/01/11 04:29:44;;;;;;;1.40;0.90;;;9.10;56.50;;;;;;20706;6847;117122;-76
2023/01/11 04:32:10;;;;;;;1.10;0.90;;;9.00;56.90;;;;;;20475;6847;323899;-74
2023/01/11 04:34:35;;;;;;;1.15;1.05;;;9.20;56.80;;;;;;20504;6847;278512;-75
2023/01/11 04:37:01;;;;;;;1.42;1.05;;;9.50;56.20;;;;;;20497;6847;313588;-73
2023/01/11 04:39:27;;;;;;;0.80;0.80;;;9.80;55.50;;;;;;20713;6847;116954;-74
2023/01/11 04:44:38;;;;;;;0.70;0.70;;;9.90;55.30;;;;;;20500;6847;278411;-73
2023/01/11 04:47:04;;;;;;;1.63;1.17;;;10.10;53.60;;;;;;20503;6847;318475;-74
2023/01/11 04:49:29;;;;;;;2.97;2.47;;;10.30;53.20;;;;;;20494;6847;307715;-73
2023/01/11 04:51:55;;;;;;;1.70;1.60;;;10.50;52.70;;;;;;20504;6847;279447;-73
2023/01/11 04:54:21;;;;;;;1.60;1.50;;;10.60;52.50;;;;;;20483;6847;280061;-73
2023/01/11 04:56:46;;;;;;;0.73;0.73;;;10.70;52.20;;;;;;20707;6847;117711;-72
2023/01/11 04:59:11;;;;;;;0.93;0.70;;;10.50;52.50;;;;;;20719;6847;117167;-72
2023/01/11 05:01:37;;;;;;;0.93;0.80;;;10.20;53.30;;;;;;20498;6847;278109;-73
2023/01/11 05:04:03;;;;;;;0.90;0.90;;;10.10;53.30;;;;;;20704;6847;117632;-75
2023/01/11 05:06:28;;;;;;;1.35;0.98;;;10.00;53.50;;;;;;20708;6847;120415;-73
2023/01/11 05:08:54;;;;;;;0.93;0.93;;;9.80;55.10;;;;;;20502;6847;278227;-73
2023/01/11 05:11:19;;;;;;;1.33;0.90;;;9.80;55.20;;;;;;20496;6847;302219;-73
2023/01/11 05:13:45;;;;;;;1.77;1.13;;;10.10;53.80;;;;;;20697;6847;119218;-73
2023/01/11 05:16:11;;;;;;;1.30;1.20;;;10.00;53.80;;;;;;20382;6847;278649;-73
2023/01/11 05:18:43;;;;;;;1.17;1.00;;;10.10;53.70;;;;;;20497;6847;307814;-74
2023/01/11 05:21:08;;;;;;;1.00;1.00;;;10.30;53.50;;;;;;20715;6847;117253;-73
2023/01/11 05:23:37;;;;;;;1.00;0.90;;;10.10;53.60;;;;;;20504;6847;278046;-72
2023/01/11 05:26:05;;;;;;;1.63;1.53;;;10.10;53.60;;;;;;20700;6847;118548;-73
2023/01/11 05:28:31;;;;;;;2.87;1.87;;;10.00;53.90;;;;;;20503;6847;324116;-72
2023/01/11 05:30:56;;;;;;;1.17;1.05;;;10.00;53.90;;;;;;20495;6845;313332;-74
2023/01/11 05:33:22;;;;;;;0.80;0.80;;;10.30;53.70;;;;;;20716;6846;119770;-74
2023/01/11 05:35:48;;;;;;;0.55;0.55;;;10.10;53.70;;;;;;20716;6847;117315;-73
2023/01/11 05:38:13;;;;;;;1.00;0.80;;;9.90;55.40;;;;;;20693;6847;118212;-74
2023/01/11 05:40:39;;;;;;;0.93;0.93;;;9.60;55.90;;;;;;20502;6847;310561;-73
2023/01/11 05:43:05;;;;;;;1.03;0.90;;;9.90;55.50;;;;;;20504;6847;312646;-73
2023/01/11 05:45:31;;;;;;;1.10;1.00;;;9.90;55.50;;;;;;20714;6847;117409;-72
2023/01/11 05:47:57;;;;;;;1.17;0.83;;;9.60;55.90;;;;;;20709;6847;117142;-75
2023/01/11 05:50:22;;;;;;;2.20;1.10;;;9.60;55.90;;;;;;20482;6847;309150;-74
2023/01/11 05:52:48;;;;;;;1.00;1.00;;;9.60;56.10;;;;;;20497;6847;337555;-74
2023/01/11 05:55:14;;;;;;;1.70;0.90;;;9.80;55.70;;;;;;20711;6847;121948;-74
2023/01/11 05:57:39;;;;;;;0.75;0.75;;;9.70;55.70;;;;;;20719;6847;117194;-73
2023/01/11 06:00:05;;;;;;;1.00;1.00;;;9.40;56.10;;;;;;20687;6847;118390;-74
2023/01/11 06:02:31;;;;;;;2.70;1.40;;;9.20;56.70;;;;;;20707;6847;118894;-75
2023/01/11 06:04:56;;;;;;;1.60;1.50;;;9.00;57.20;;;;;;20706;6847;120225;-73
2023/01/11 06:07:24;;;;;;;2.20;2.00;;;9.00;58.10;;;;;;20442;6847;308579;-72
2023/01/11 06:09:48;;;;;;;2.47;1.80;;;8.90;58.00;;;;;;20714;6847;118740;-73
2023/01/11 06:12:14;;;;;;;1.40;1.30;;;9.00;57.90;;;;;;20706;6847;117537;-73
2023/01/11 06:14:39;;;;;;;1.27;1.20;;;8.90;58.30;;;;;;20459;6847;309706;-71
2023/01/11 06:17:05;;;;;;;1.50;1.40;;;9.10;58.80;;;;;;20704;6847;120324;-76
2023/01/11 06:19:30;;;;;;;2.23;1.23;;;9.10;58.60;;;;;;20711;6847;117230;-75
2023/01/11 06:21:56;;;;;;;1.60;1.50;;;9.00;58.90;;;;;;20497;6847;322519;-74
2023/01/11 06:24:21;;;;;;;1.50;1.40;;;9.20;59.00;;;;;;20686;6847;118871;-77
2023/01/11 06:26:47;;;;;;;1.37;1.27;;;9.30;58.90;;;;;;20498;6847;308099;-77
2023/01/11 06:29:13;;;;;;;1.50;1.40;;;9.70;57.90;;;;;;20496;6847;313541;-76
2023/01/11 06:31:39;;;;;;;1.57;1.30;;;9.70;57.90;;;;;;20710;6847;119004;-75
2023/01/11 06:34:04;;;;;;;1.87;1.77;;;9.70;57.70;;;;;;20692;6847;118577;-75
2023/01/11 06:36:30;;;;;;;2.40;2.20;;;9.50;58.20;;;;;;20490;6847;308533;-75
2023/01/11 06:38:55;;;;;;;2.20;2.07;;;9.50;58.30;;;;;;20691;6847;118736;-74
2023/01/11 06:41:21;;;;;;;2.97;2.50;;;9.50;58.30;;;;;;20504;6845;279042;-76
2023/01/11 06:43:47;;;;;;;2.43;2.23;;;9.50;58.10;;;;;;20506;6846;278542;-76
2023/01/11 06:46:12;;;;;;;2.20;2.10;;;9.80;57.50;;;;;;20694;6846;117164;-73
2023/01/11 06:48:38;;;;;;;2.10;2.00;;;9.60;57.40;;;;;;20492;6847;312636;-73
2023/01/11 06:51:04;;;;;;;2.53;2.40;;;9.80;57.30;;;;;;20493;6847;308113;-73
2023/01/11 06:53:29;;;;;;;1.73;1.60;;;9.80;57.30;;;;;;20710;6847;117145;-74
2023/01/11 06:55:55;;;;;;;2.37;1.70;;;9.70;57.40;;;;;;20504;6847;283167;-76
2023/01/11 06:58:22;;;;;;;3.97;2.37;;;9.70;57.70;;;;;;20683;6847;117418;-73
2023/01/11 07:00:47;;;;;;;1.40;1.30;;;9.60;58.10;;;;;;20492;6847;312016;-72
2023/01/11 07:03:12;;;;;;;1.73;1.63;;;9.50;58.00;;;;;;20707;6847;117212;-74
2023/01/11 07:05:38;;;;;;;1.33;1.23;;;9.40;58.10;;;;;;20714;6847;121172;-71
2023/01/11 07:08:04;;;;;;;1.80;1.50;;;9.10;58.50;;;;;;20475;6847;307149;-72
2023/01/11 07:10:30;;;;;;;1.53;1.43;;;9.20;58.70;;;;;;20700;6847;117038;-71
2023/01/11 07:12:56;;;;;;;3.00;1.60;;;9.20;58.70;;;;;;20505;6847;278849;-71
2023/01/11 07:15:23;;;;;;;1.95;1.50;;;9.50;58.10;;;;;;20489;6847;308186;-71
2023/01/11 07:17:56;;;;;;;2.80;1.70;;;9.50;58.00;;;;;;20501;6847;341636;-72
2023/01/11 07:20:22;;;;;;;3.23;1.87;;;9.70;57.40;;;;;;20478;6847;438051;-72
2023/01/11 07:22:47;;;;;;;1.63;1.40;;;9.90;56.80;;;;;;20493;6847;310796;-72
2023/01/11 07:25:12;;;;;;;1.50;1.40;;;10.00;55.40;;;;;;20493;6847;338899;-72
2023/01/11 07:27:38;;;;;;;1.80;1.20;;;10.20;55.20;;;;;;20708;6847;117595;-72
2023/01/11 07:30:04;;;;;;;1.83;1.62;;;9.90;56.50;;;;;;20480;6847;338145;-72
2023/01/11 07:32:30;;;;;;;3.50;1.63;;;9.90;56.60;;;;;;20504;6847;281364;-72
2023/01/11 07:34:57;;;;;;;2.50;1.60;;;10.00;55.20;;;;;;20494;6847;328326;-72
2023/01/11 07:37:26;;;;;;;1.43;1.30;;;10.00;55.20;;;;;;20690;6847;117260;-72
2023/01/11 07:39:53;;;;;;;1.57;1.43;;;10.00;55.20;;;;;;20663;6847;117429;-72
2023/01/11 07:45:04;;;;;;;2.20;1.60;;;9.60;57.10;;;;;;20723;6847;116916;-73
2023/01/11 07:47:30;;;;;;;2.87;1.73;;;9.60;57.50;;;;;;20696;6847;117124;-72
2023/01/11 07:49:55;;;;;;;2.50;2.30;;;9.30;58.00;;;;;;20499;6847;340317;-73
2023/01/11 07:52:21;;;;;;;4.40;2.00;;;9.40;58.20;;;;;;20715;6846;118093;-73
2023/01/11 07:54:46;;;;;;;2.62;2.17;;;9.50;58.40;;;;;;20620;6846;117725;-72
2023/01/11 07:57:12;;;;;;;1.77;1.33;;;9.40;58.90;;;;;;20672;6846;118232;-75
2023/01/11 07:59:38;;;;;;;1.87;1.77;;;9.30;59.40;;;;;;20707;6847;117110;-74
2023/01/11 08:02:03;;;;;;;3.50;3.30;;;9.20;59.80;;;;;;20692;6847;120241;-74
2023/01/11 08:04:29;;;;;;;3.27;3.07;;;9.10;60.00;;;;;;20367;6864;311931;-73
2023/01/11 08:06:54;;;;;;;4.30;3.20;;;9.40;59.90;;;;;;20482;6850;280307;-73
2023/01/11 08:09:20;;;;;;;4.17;3.87;;;9.80;59.10;;;;;;20537;6842;278768;-73
2023/01/11 08:14:38;;;;;;;2.40;2.30;;;10.20;57.20;;;;;;20732;6842;120699;-73
2023/01/11 08:17:08;;;;;;;1.93;1.70;;;10.10;57.80;;;;;;20518;6842;312601;-73
2023/01/11 08:19:33;;;;;;;3.20;1.47;;;10.20;57.90;;;;;;20723;6842;117677;-73
2023/01/11 08:21:59;;;;;;;2.80;2.20;;;10.20;58.00;;;;;;20521;6842;308206;-73
2023/01/11 08:24:25;;;;;;;5.00;4.60;;;10.60;57.20;;;;;;20479;6850;286684;-73
2023/01/11 08:26:51;;;;;;;3.83;3.53;;;10.60;57.20;;;;;;20521;6842;308930;-73
2023/01/11 08:29:17;;;;;;;2.30;2.20;;;10.90;56.60;;;;;;20740;6842;117628;-73
2023/01/11 08:31:44;;;;;;;5.53;4.37;;;10.90;56.60;;;;;;20529;6842;280080;-74
2023/01/11 08:34:10;;;;;;;4.07;3.67;;;11.20;56.00;;;;;;20483;6850;327628;-73
2023/01/11 08:36:36;;;;;;;5.43;5.03;;;11.20;56.00;;;;;;20725;6842;117904;-73
2023/01/11 08:39:02;;;;;;;4.30;4.00;;;11.10;56.00;;;;;;20517;6842;307999;-73
2023/01/11 08:41:28;;;;;;;4.43;4.03;;;11.20;56.00;;;;;;20736;6842;117403;-73
2023/01/11 08:43:54;;;;;;;4.00;3.60;;;11.10;56.20;;;;;;20516;6842;308464;-73
2023/01/11 08:46:19;;;;;;;2.00;1.90;;;11.10;56.10;;;;;;20711;6842;120543;-73
2023/01/11 08:48:48;;;;;;;2.50;2.15;;;11.10;56.30;;;;;;20525;6842;308095;-72
2023/01/11 08:51:15;;;;;;;5.23;3.23;;;11.10;56.30;;;;;;20738;6842;118891;-73
2023/01/11 08:53:40;;;;;;;2.70;2.50;;;11.00;56.50;;;;;;20743;6842;117224;-75
2023/01/11 08:56:06;;;;;;;5.60;5.20;;;10.90;57.10;;;;;;20720;6842;118327;-74
2023/01/11 08:58:31;;;;;;;11.10;10.10;;;10.70;57.60;;;;;;20514;6842;303833;-75
2023/01/11 09:00:58;;;;;;;2.20;2.10;;;10.80;57.60;;;;;;20697;6850;117733;-75
2023/01/11 09:03:23;;;;;;;1.70;1.60;;;10.90;57.70;;;;;;20714;6842;121434;-75
2023/01/11 09:05:48;;;;;;;2.47;2.10;;;10.70;57.80;;;;;;20701;6849;118341;-74
2023/01/11 09:08:14;;;;;;;2.80;2.60;;;10.80;57.30;;;;;;20488;6841;307729;-75
2023/01/11 09:10:41;;;;;;;2.17;1.92;;;11.10;56.70;;;;;;20500;6842;337230;-75
2023/01/11 09:13:06;;;;;;;2.20;2.00;;;11.10;56.10;;;;;;20695;6850;117788;-75
2023/01/11 09:15:32;;;;;;;4.20;3.50;;;11.20;56.20;;;;;;20492;6842;308037;-74
2023/01/11 09:17:57;;;;;;;9.07;7.95;;;11.30;56.00;;;;;;20693;6850;118097;-74
2023/01/11 09:20:23;;;;;;;14.40;12.23;;;11.30;56.20;;;;;;20501;6842;293044;-74
2023/01/11 09:22:49;;;;;;;4.70;3.47;;;11.40;55.90;;;;;;20717;6842;118659;-75
2023/01/11 09:25:15;;;;;;;6.07;5.47;;;11.50;55.70;;;;;;20503;6842;308543;-74
2023/01/11 09:27:47;;;;;;;2.50;1.52;;;11.50;55.70;;;;;;20511;6842;278494;-75
2023/01/11 09:30:12;;;;;;;1.33;1.20;;;11.80;55.30;;;;;;20457;6850;282475;-75
2023/01/11 09:32:38;;;;;;;9.30;8.33;;;12.00;54.90;;;;;;20490;6842;279650;-76
2023/01/11 09:35:04;;;;;;;2.30;2.10;;;12.20;54.60;;;;;;20709;6842;117649;-75
2023/01/11 09:37:29;;;;;;;1.70;1.60;;;12.10;54.90;;;;;;20491;6842;307679;-77
2023/01/11 09:39:56;;;;;;;6.28;5.75;;;12.10;54.90;;;;;;20499;6842;312234;-75
2023/01/11 09:42:30;;;;;;;4.45;1.67;;;12.30;54.80;;;;;;20699;6842;126962;-74
2023/01/11 09:44:55;;;;;;;2.20;2.00;;;12.20;55.00;;;;;;20686;6850;118691;-75
2023/01/11 09:47:39;;;;;;;0.70;0.70;;;11.90;55.60;;;;;;20726;6842;117680;-75
2023/01/11 09:50:05;;;;;;;0.97;0.60;;;11.70;56.10;;;;;;20701;6842;122588;-75
2023/01/11 09:52:38;;;;;;;0.70;0.70;;;11.40;56.60;;;;;;20499;6842;308997;-75
2023/01/11 09:55:00;;;;;;;0.60;0.60;;;11.60;56.60;;;;;;20686;6850;117414;-75
2023/01/11 09:57:36;;;;;;;0.40;0.40;;;11.60;56.60;;;;;;20727;6842;121531;-75
2023/01/11 10:00:15;;;;;;;1.00;0.60;;;11.40;57.40;;;;;;19593;7207;119532;-74
2023/01/11 10:02:47;;;;;;;1.03;0.50;;;11.40;57.40;;;;;;20577;6869;118193;-74
2023/01/11 10:05:34;;;;;;;0.30;0.30;;;11.30;57.80;;;;;;20648;6860;120947;-76
2023/01/11 10:08:34;;;;;;;0.60;0.60;;;11.20;58.20;;;;;;20462;6850;315651;-79
2023/01/11 10:11:00;;;;;;;0.50;0.50;;;11.40;57.60;;;;;;20677;6851;118100;-80
2023/01/11 10:13:53;;;;;;;0.60;0.50;;;11.50;57.50;;;;;;20663;6851;117262;-75
2023/01/11 10:16:35;;;;;;;0.93;0.50;;;11.40;57.70;;;;;;20661;6848;118367;-77
2023/01/11 10:19:15;;;;;;;0.70;0.70;;;11.30;58.00;;;;;;20678;6850;117930;-78
2023/01/11 10:21:53;;;;;;;1.00;0.70;;;11.40;57.60;;;;;;20469;6850;278499;-83
2023/01/11 10:24:23;;;;;;;0.60;0.60;;;11.40;57.60;;;;;;20437;6850;308198;-77
2023/01/11 10:26:49;;;;;;;1.05;0.75;;;11.80;57.10;;;;;;20454;6850;308113;-79
2023/01/11 10:31:58;;;;;;;0.55;0.55;;;12.20;56.40;;;;;;20490;6850;283622;-78
2023/01/11 10:34:37;;;;;;;0.40;0.40;;;12.30;56.00;;;;;;20611;6850;118425;-79
2023/01/11 10:40:10;;;;;;;0.77;0.47;;;12.30;55.80;;;;;;20490;6850;308151;-79
2023/01/11 10:42:20;;;;;;;0.40;0.40;;;12.60;55.40;;;;;;20427;6850;339003;-77
2023/01/11 10:45:02;;;;;;;0.75;0.73;;;12.80;54.50;;;;;;20472;6850;338114;-77
2023/01/11 10:47:28;;;;;;;0.50;0.50;;;13.00;54.20;;;;;;20484;6850;280023;-77
2023/01/11 10:50:14;;;;;;;0.90;0.55;;;13.30;53.40;;;;;;20480;6850;308255;-77
2023/01/11 10:53:01;;;;;;;0.40;0.40;;;13.30;53.40;;;;;;20710;6850;121429;-76
2023/01/11 10:55:42;;;;;;;0.47;0.47;;;13.00;53.90;;;;;;20662;6861;117501;-75
2023/01/11 10:58:29;;;;;;;0.43;0.30;;;12.70;54.70;;;;;;20268;6860;144742;-73
2023/01/11 11:00:59;;;;;;;1.10;0.57;;;12.40;56.10;;;;;;20462;6850;294579;-78
2023/01/11 11:03:29;;;;;;;0.60;0.60;;;12.50;55.30;;;;;;20434;6850;278927;-75
2023/01/11 11:06:14;;;;;;;0.60;0.60;;;12.80;54.90;;;;;;20480;6843;340958;-76
2023/01/11 11:08:45;;;;;;;0.50;0.50;;;12.90;54.50;;;;;;20722;6843;117691;-74
2023/01/11 11:11:14;;;;;;;0.47;0.47;;;12.90;54.60;;;;;;20710;6843;117362;-75
2023/01/11 11:13:56;;;;;;;1.35;1.30;;;12.70;55.30;;;;;;20502;6844;282499;-75
2023/01/11 11:16:22;;;;;;;4.00;3.60;;;12.70;55.40;;;;;;20621;6866;121435;-72
2023/01/11 11:18:47;;;;;;;2.95;2.75;;;12.70;55.60;;;;;;20489;6851;280364;-73
2023/01/11 11:21:29;;;;;;;1.20;1.20;;;12.80;55.70;;;;;;20508;6844;342030;-73
2023/01/11 11:24:05;;;;;;;1.00;1.00;;;13.00;55.60;;;;;;20710;6844;117457;-74
2023/01/11 11:26:36;;;;;;;2.03;1.60;;;13.00;55.70;;;;;;20679;6847;117536;-75
2023/01/11 11:29:05;;;;;;;1.60;1.50;;;12.60;56.60;;;;;;20638;6864;117484;-72
2023/01/11 11:31:30;;;;;;;2.28;2.17;;;12.60;56.60;;;;;;20478;6851;338145;-71
2023/01/11 11:33:57;;;;;;;2.90;2.70;;;12.70;56.70;;;;;;20499;6844;337936;-74
2023/01/11 11:36:22;;;;;;;1.10;1.00;;;12.90;56.50;;;;;;20666;6847;123751;-72
2023/01/11 11:39:01;;;;;;;3.30;3.10;;;13.00;56.40;;;;;;20706;6847;123156;-73
2023/01/11 11:41:30;;;;;;;1.27;1.20;;;12.70;56.60;;;;;;20692;6847;117267;-79
2023/01/11 11:43:55;;;;;;;2.23;2.13;;;12.50;57.10;;;;;;20664;6847;118469;-77
2023/01/11 11:46:25;;;;;;;0.97;0.97;;;12.30;58.00;;;;;;20646;6847;118121;-74
2023/01/11 11:49:10;;;;;;;1.40;1.40;;;12.30;58.00;;;;;;20698;6851;118978;-75
2023/01/11 11:51:36;;;;;;;0.90;0.90;;;12.20;58.40;;;;;;20693;6851;121927;-74
2023/01/11 11:54:01;;;;;;;1.90;1.80;;;12.20;58.80;;;;;;20480;6851;327148;-73
2023/01/11 11:56:32;;;;;;;0.90;0.90;;;12.40;58.90;;;;;;20680;6851;118289;-74
2023/01/11 11:58:58;;;;;;;2.70;2.60;;;12.70;57.90;;;;;;20447;6851;278051;-76
2023/01/11 12:01:27;;;;;;;0.60;0.60;;;12.70;57.90;;;;;;20468;6851;278696;-75
2023/01/11 12:03:56;;;;;;;0.88;0.82;;;13.10;57.20;;;;;;20483;6851;307737;-74
2023/01/11 12:06:21;;;;;;;1.77;1.77;;;13.40;56.20;;;;;;20681;6851;118940;-74
2023/01/11 12:08:47;;;;;;;1.85;1.77;;;13.40;56.30;;;;;;20458;6851;282056;-73
2023/01/11 12:11:12;;;;;;;0.73;0.73;;;13.40;56.20;;;;;;20708;6851;117739;-74
2023/01/11 12:13:38;;;;;;;0.90;0.90;;;13.30;56.30;;;;;;20478;6851;312218;-75
2023/01/11 12:16:17;;;;;;;1.40;1.40;;;13.30;56.40;;;;;;20473;6851;308638;-74
2023/01/11 12:18:43;;;;;;;1.67;1.57;;;13.50;56.30;;;;;;20701;6851;119415;-74
2023/01/11 12:21:19;;;;;;;1.70;1.60;;;13.40;56.30;;;;;;20496;6851;309583;-74
2023/01/11 12:23:46;;;;;;;1.08;0.98;;;13.60;56.00;;;;;;20480;6851;278607;-74
2023/01/11 12:26:25;;;;;;;1.67;1.58;;;13.70;55.60;;;;;;20463;6851;338349;-75
2023/01/11 12:29:08;;;;;;;1.87;1.77;;;13.70;55.60;;;;;;20678;6851;118454;-74
2023/01/11 12:31:34;;;;;;;2.00;1.90;;;13.50;55.80;;;;;;20448;6851;286608;-73
2023/01/11 12:34:13;;;;;;;0.93;0.93;;;13.60;55.90;;;;;;20468;6851;308432;-74
2023/01/11 12:36:59;;;;;;;0.80;0.80;;;13.60;55.90;;;;;;20683;6851;117595;-74
2023/01/11 12:39:38;;;;;;;1.00;0.90;;;13.50;56.00;;;;;;20469;6849;313721;-74
2023/01/11 12:42:33;;;;;;;0.90;0.90;;;13.40;56.20;;;;;;20667;6850;118070;-73
2023/01/11 12:45:29;;;;;;;0.70;0.70;;;13.40;56.60;;;;;;20488;6851;279020;-73
2023/01/11 12:48:01;;;;;;;0.60;0.60;;;13.30;56.40;;;;;;20478;6851;335753;-73
2023/01/11 12:50:50;;;;;;;1.00;1.00;;;13.50;56.90;;;;;;20470;6851;308563;-73
2023/01/11 12:53:26;;;;;;;4.00;3.70;;;13.60;56.30;;;;;;20492;6851;117276;-73
2023/01/11 12:55:51;;;;;;;11.53;9.17;;;13.50;56.70;;;;;;20696;6851;117284;-72
2023/01/11 12:58:34;;;;;;;13.73;12.40;;;13.10;57.70;;;;;;20442;6851;322105;-72
2023/01/11 13:01:20;;;;;;;6.23;5.73;;;13.10;57.70;;;;;;20690;6851;117975;-72
2023/01/11 13:04:25;;;;;;;16.63;13.07;;;13.00;57.50;;;;;;20695;6851;117359;-73
2023/01/11 13:06:58;;;;;;;20.43;14.37;;;12.70;57.80;;;;;;20701;6851;117596;-73
2023/01/11 13:09:30;;;;;;;1.80;1.70;;;12.30;58.20;;;;;;20695;6851;117796;-73
2023/01/11 13:12:21;;;;;;;1.83;1.73;;;12.20;58.60;;;;;;20494;6851;307865;-73
2023/01/11 13:14:56;;;;;;;3.43;3.27;;;12.20;60.50;;;;;;20477;6851;308655;-73
2023/01/11 13:17:29;;;;;;;5.77;5.37;;;12.60;60.10;;;;;;20682;6851;117595;-73
2023/01/11 13:19:57;;;;;;;4.60;4.30;;;12.60;60.20;;;;;;20470;6851;312944;-73